createdAt,value
2022-10-22T00:00:33.098Z,100.00
2022-10-22T00:03:35.805Z,100.00
2022-10-22T00:06:38.298Z,100.00
2022-10-22T00:09:40.845Z,100.00
2022-10-22T00:12:44.674Z,100.00
2022-10-22T00:15:47.225Z,100.00
2022-10-22T00:18:50.128Z,100.00
2022-10-22T00:21:52.600Z,100.00
2022-10-22T00:24:55.094Z,100.00
2022-10-22T00:27:58.909Z,100.00
2022-10-22T00:31:02.358Z,100.00
2022-10-22T00:34:04.874Z,100.00
2022-10-22T00:37:07.345Z,100.00
2022-10-22T00:40:11.569Z,100.00
2022-10-22T00:43:18.250Z,100.00
2022-10-22T00:46:20.737Z,100.00
2022-10-22T00:49:23.286Z,100.00
2022-10-22T00:52:26.041Z,100.00
2022-10-22T00:55:30.660Z,100.00
2022-10-22T00:58:37.713Z,100.00
2022-10-22T01:01:40.189Z,100.00
2022-10-22T01:04:42.765Z,100.00
2022-10-22T01:07:49.037Z,100.00
2022-10-22T01:11:01.406Z,100.00
2022-10-22T01:14:14.672Z,100.00
2022-10-22T01:17:25.721Z,100.00
2022-10-22T01:20:45.646Z,100.00
2022-10-22T01:24:18.635Z,100.00
2022-10-22T01:27:48.651Z,100.00
2022-10-22T01:30:57.470Z,100.00
2022-10-22T01:34:01.916Z,100.00
2022-10-22T01:37:04.689Z,100.00
2022-10-22T01:40:10.256Z,100.00
2022-10-22T01:43:13.373Z,100.00
2022-10-22T01:46:19.606Z,100.00
2022-10-22T01:49:32.534Z,100.00
2022-10-22T01:52:46.169Z,100.00
2022-10-22T01:56:05.753Z,100.00
2022-10-22T01:59:18.650Z,100.00
2022-10-22T02:02:32.102Z,100.00
2022-10-22T02:05:39.552Z,100.00
2022-10-22T02:08:44.209Z,100.00
2022-10-22T02:11:48.610Z,100.00
2022-10-22T02:14:51.754Z,100.00
2022-10-22T02:17:58.431Z,100.00
2022-10-22T02:21:01.974Z,100.00
2022-10-22T02:24:05.517Z,100.00
2022-10-22T02:27:13.549Z,100.00
2022-10-22T02:30:19.067Z,100.00
2022-10-22T02:33:26.306Z,100.00
2022-10-22T02:36:29.902Z,100.00
2022-10-22T02:39:34.136Z,100.00
2022-10-22T02:42:38.843Z,100.00
2022-10-22T02:45:41.627Z,100.00
2022-10-22T02:48:45.514Z,100.00
2022-10-22T02:51:48.002Z,100.00
2022-10-22T02:54:50.484Z,100.00
2022-10-22T02:57:52.961Z,100.00
2022-10-22T03:00:55.643Z,100.00
2022-10-22T03:03:59.477Z,100.00
2022-10-22T03:07:01.954Z,100.00
2022-10-22T03:10:04.965Z,100.00
2022-10-22T03:13:07.447Z,100.00
2022-10-22T03:16:10.043Z,100.00
2022-10-22T03:19:13.902Z,100.00
2022-10-22T03:22:22.283Z,100.00
2022-10-22T03:25:27.841Z,100.00
2022-10-22T03:28:30.578Z,100.00
2022-10-22T03:31:33.116Z,100.00
2022-10-22T03:34:36.920Z,100.00
2022-10-22T03:37:40.761Z,100.00
2022-10-22T03:40:45.695Z,100.00
2022-10-22T03:43:51.469Z,100.00
2022-10-22T03:46:57.506Z,100.00
2022-10-22T03:50:04.668Z,100.00
2022-10-22T03:53:10.444Z,100.00
2022-10-22T03:56:13.722Z,100.00
2022-10-22T03:59:16.491Z,100.00
2022-10-22T04:02:18.990Z,100.00
2022-10-22T04:05:22.942Z,100.00
2022-10-22T04:08:25.429Z,100.00
2022-10-22T04:11:27.945Z,100.00
2022-10-22T04:14:30.440Z,100.00
2022-10-22T04:17:35.194Z,100.00
2022-10-22T04:20:39.021Z,100.00
2022-10-22T04:23:46.764Z,100.00
2022-10-22T04:26:49.236Z,100.00
2022-10-22T04:29:51.730Z,100.00
2022-10-22T04:32:54.262Z,100.00
2022-10-22T04:35:58.078Z,100.00
2022-10-22T04:39:02.254Z,100.00
2022-10-22T04:42:05.096Z,100.00
2022-10-22T04:45:08.485Z,100.00
2022-10-22T04:48:10.972Z,100.00
2022-10-22T04:51:17.368Z,100.00
2022-10-22T04:54:19.969Z,100.00
2022-10-22T04:57:22.458Z,100.00
2022-10-22T05:00:24.937Z,100.00
2022-10-22T05:03:27.471Z,100.00
2022-10-22T05:06:32.616Z,100.00
2022-10-22T05:09:35.159Z,100.00
2022-10-22T05:12:37.632Z,100.00
2022-10-22T05:15:40.120Z,100.00
2022-10-22T05:18:44.503Z,100.00
2022-10-22T05:21:48.348Z,100.00
2022-10-22T05:24:50.832Z,100.00
2022-10-22T05:27:56.125Z,100.00
2022-10-22T05:31:01.259Z,100.00
2022-10-22T05:34:03.789Z,100.00
2022-10-22T05:37:07.597Z,100.00
2022-10-22T05:40:19.630Z,100.00
2022-10-22T05:43:29.758Z,100.00
2022-10-22T05:46:35.843Z,100.00
2022-10-22T05:49:38.340Z,100.00
2022-10-22T05:52:42.491Z,100.00
2022-10-22T05:55:45.662Z,100.00
2022-10-22T05:58:48.226Z,100.00
2022-10-22T06:01:50.778Z,100.00
2022-10-22T06:04:53.283Z,100.00
2022-10-22T06:07:58.523Z,100.00
2022-10-22T06:11:01.778Z,100.00
2022-10-22T06:14:04.806Z,100.00
2022-10-22T06:17:07.284Z,100.00
2022-10-22T06:20:11.200Z,100.00
2022-10-22T06:23:15.572Z,100.00
2022-10-22T06:26:18.330Z,100.00
2022-10-22T06:29:20.853Z,100.00
2022-10-22T06:32:23.327Z,100.00
2022-10-22T06:35:25.879Z,100.00
2022-10-22T06:38:29.690Z,100.00
2022-10-22T06:41:32.357Z,100.00
2022-10-22T06:44:34.854Z,100.00
2022-10-22T06:47:37.339Z,100.00
2022-10-22T06:50:40.258Z,100.00
2022-10-22T06:53:44.147Z,100.00
2022-10-22T06:56:46.640Z,100.00
2022-10-22T06:59:49.113Z,100.00
2022-10-22T07:02:57.608Z,100.00
2022-10-22T07:06:02.566Z,100.00
2022-10-22T07:09:06.466Z,100.00
2022-10-22T07:12:09.017Z,100.00
2022-10-22T07:15:11.610Z,100.00
2022-10-22T07:18:14.093Z,100.00
2022-10-22T07:21:18.638Z,100.00
2022-10-22T07:24:22.458Z,100.00
2022-10-22T07:27:24.942Z,100.00
2022-10-22T07:30:27.432Z,100.00
2022-10-22T07:33:29.985Z,100.00
2022-10-22T07:36:32.506Z,100.00
2022-10-22T07:39:36.470Z,100.00
2022-10-22T07:42:38.967Z,100.00
2022-10-22T07:45:41.884Z,100.00
2022-10-22T07:48:44.357Z,100.00
2022-10-22T07:51:46.839Z,100.00
2022-10-22T07:54:50.658Z,100.00
2022-10-22T07:57:53.228Z,100.00
2022-10-22T08:00:57.052Z,100.00
2022-10-22T08:03:59.533Z,100.00
2022-10-22T08:07:02.085Z,100.00
2022-10-22T08:10:06.912Z,100.00
2022-10-22T08:13:09.722Z,100.00
2022-10-22T08:16:12.211Z,100.00
2022-10-22T08:19:18.668Z,100.00
2022-10-22T08:22:21.369Z,100.00
2022-10-22T08:25:25.264Z,100.00
2022-10-22T08:28:29.578Z,100.00
2022-10-22T08:31:32.191Z,100.00
2022-10-22T08:34:34.718Z,100.00
2022-10-22T08:37:37.282Z,100.00
2022-10-22T08:40:42.020Z,100.00
2022-10-22T08:44:04.392Z,100.00
2022-10-22T08:47:32.809Z,100.00
2022-10-22T08:50:39.714Z,100.00
2022-10-22T08:53:52.516Z,100.00
2022-10-22T08:57:07.815Z,100.00
2022-10-22T09:00:15.071Z,100.00
2022-10-22T09:03:32.510Z,100.00
2022-10-22T09:06:37.700Z,100.00
2022-10-22T09:09:47.958Z,100.00
2022-10-22T09:12:51.959Z,100.00
2022-10-22T09:15:58.398Z,100.00
2022-10-22T09:19:13.683Z,100.00
2022-10-22T09:22:26.759Z,100.00
2022-10-22T09:25:32.252Z,100.00
2022-10-22T09:28:36.081Z,100.00
2022-10-22T09:31:38.552Z,100.00
2022-10-22T09:34:41.454Z,100.00
2022-10-22T09:37:52.268Z,100.00
2022-10-22T09:40:56.916Z,100.00
2022-10-22T09:44:00.836Z,100.00
2022-10-22T09:47:05.686Z,100.00
2022-10-22T09:50:21.001Z,100.00
2022-10-22T09:53:28.273Z,100.00
2022-10-22T09:56:36.635Z,100.00
2022-10-22T09:59:43.271Z,100.00
2022-10-22T10:02:45.761Z,100.00
2022-10-22T10:05:50.200Z,96.05
2022-10-22T10:08:52.982Z,95.60
2022-10-22T10:12:06.012Z,92.60
2022-10-22T10:15:21.333Z,90.16
2022-10-22T10:18:34.828Z,88.28
2022-10-22T10:21:46.082Z,84.75
2022-10-22T10:25:06.033Z,80.97
2022-10-22T10:28:29.814Z,76.50
2022-10-22T10:31:44.566Z,73.87
2022-10-22T10:34:55.671Z,73.99
2022-10-22T10:38:16.665Z,69.36
2022-10-22T10:41:26.505Z,68.64
2022-10-22T10:44:46.113Z,65.82
2022-10-22T10:48:25.002Z,66.58
2022-10-22T10:51:39.117Z,62.86
2022-10-22T10:54:48.011Z,60.31
2022-10-22T10:57:57.181Z,59.81
2022-10-22T11:01:06.235Z,56.01
2022-10-22T11:04:25.804Z,54.71
2022-10-22T11:07:35.435Z,58.02
2022-10-22T11:10:41.294Z,55.38
2022-10-22T11:13:50.342Z,55.61
2022-10-22T11:16:57.219Z,53.74
2022-10-22T11:20:06.850Z,55.27
2022-10-22T11:23:20.855Z,51.81
2022-10-22T11:26:33.173Z,56.60
2022-10-22T11:29:41.658Z,63.94
2022-10-22T11:32:48.130Z,69.71
2022-10-22T11:35:53.639Z,70.02
2022-10-22T11:38:56.762Z,74.18
2022-10-22T11:41:59.958Z,75.82
2022-10-22T11:45:05.670Z,76.22
2022-10-22T11:48:16.858Z,71.78
2022-10-22T11:51:33.960Z,71.57
2022-10-22T11:54:43.316Z,69.78
2022-10-22T11:57:45.806Z,66.11
2022-10-22T12:00:49.621Z,62.48
2022-10-22T12:03:53.906Z,66.78
2022-10-22T12:07:00.394Z,72.32
2022-10-22T12:10:07.396Z,76.50
2022-10-22T12:13:16.506Z,81.46
2022-10-22T12:16:32.069Z,82.52
2022-10-22T12:19:45.218Z,82.55
2022-10-22T12:22:49.302Z,77.95
2022-10-22T12:25:51.802Z,75.96
2022-10-22T12:28:59.289Z,70.29
2022-10-22T12:32:05.505Z,61.34
2022-10-22T12:35:10.191Z,59.67
2022-10-22T12:38:17.224Z,59.77
2022-10-22T12:41:19.736Z,54.00
2022-10-22T12:44:22.311Z,57.67
2022-10-22T12:47:24.847Z,65.51
2022-10-22T12:50:33.901Z,74.17
2022-10-22T12:53:40.704Z,78.95
2022-10-22T12:56:43.307Z,80.59
2022-10-22T12:59:49.875Z,83.22
2022-10-22T13:02:54.066Z,86.28
2022-10-22T13:05:56.616Z,87.13
2022-10-22T13:09:08.905Z,87.00
2022-10-22T13:12:16.262Z,83.40
2022-10-22T13:15:34.458Z,84.28
2022-10-22T13:18:36.978Z,85.73
2022-10-22T13:21:40.350Z,83.46
2022-10-22T13:24:51.397Z,85.75
2022-10-22T13:27:56.898Z,87.10
2022-10-22T13:31:01.485Z,88.96
2022-10-22T13:34:11.725Z,87.75
2022-10-22T13:37:15.487Z,88.49
2022-10-22T13:40:20.097Z,89.37
2022-10-22T13:43:22.922Z,91.39
2022-10-22T13:46:27.462Z,90.45
2022-10-22T13:49:30.046Z,92.09
2022-10-22T13:52:39.642Z,94.80
2022-10-22T13:55:44.966Z,94.14
2022-10-22T13:58:48.927Z,94.08
2022-10-22T14:01:51.811Z,93.58
2022-10-22T14:04:54.782Z,92.77
2022-10-22T14:07:58.021Z,92.34
2022-10-22T14:11:01.873Z,93.50
2022-10-22T14:14:08.611Z,93.72
2022-10-22T14:17:16.702Z,93.13
2022-10-22T14:20:22.398Z,95.10
2022-10-22T14:23:27.849Z,95.77
2022-10-22T14:26:34.950Z,94.93
2022-10-22T14:29:37.434Z,94.61
2022-10-22T14:32:40.228Z,92.67
2022-10-22T14:35:42.912Z,92.05
2022-10-22T14:38:47.242Z,90.71
2022-10-22T14:41:51.066Z,90.96
2022-10-22T14:44:53.585Z,90.41
2022-10-22T14:47:56.234Z,91.34
2022-10-22T14:50:58.705Z,88.63
2022-10-22T14:54:01.249Z,88.79
2022-10-22T14:57:06.021Z,88.33
2022-10-22T15:00:12.240Z,90.23
2022-10-22T15:03:14.766Z,92.13
2022-10-22T15:06:17.542Z,92.51
2022-10-22T15:09:20.061Z,93.46
2022-10-22T15:12:23.922Z,94.81
2022-10-22T15:15:30.511Z,93.26
2022-10-22T15:18:37.957Z,93.38
2022-10-22T15:24:49.528Z,95.51
2022-10-22T15:27:54.878Z,95.03
2022-10-22T15:31:02.064Z,97.26
2022-10-22T15:34:04.556Z,96.47
2022-10-22T15:37:08.972Z,97.03
2022-10-22T15:40:12.097Z,96.84
2022-10-22T15:43:15.922Z,97.96
2022-10-22T15:46:20.420Z,99.17
2022-10-22T15:49:23.251Z,98.88
2022-10-22T15:52:25.797Z,100.00
2022-10-22T15:55:28.297Z,97.32
2022-10-22T15:58:32.232Z,97.83
2022-10-22T16:01:36.089Z,100.00
2022-10-22T16:04:38.802Z,100.00
2022-10-22T16:07:41.673Z,100.00
2022-10-22T16:10:47.053Z,100.00
2022-10-22T16:13:54.616Z,100.00
2022-10-22T16:16:59.440Z,100.00
2022-10-22T16:20:02.039Z,100.00
2022-10-22T16:23:04.549Z,100.00
2022-10-22T16:26:07.546Z,100.00
2022-10-22T16:29:12.540Z,100.00
2022-10-22T16:32:16.377Z,100.00
2022-10-22T16:35:18.865Z,100.00
2022-10-22T16:38:21.355Z,100.00
2022-10-22T16:41:25.573Z,100.00
2022-10-22T16:44:29.709Z,100.00
2022-10-22T16:47:32.197Z,100.00
2022-10-22T16:50:34.652Z,100.00
2022-10-22T16:53:37.711Z,100.00
2022-10-22T16:56:40.337Z,100.00
2022-10-22T16:59:44.149Z,100.00
2022-10-22T17:02:51.537Z,100.00
2022-10-22T17:05:54.035Z,100.00
2022-10-22T17:08:56.677Z,100.00
2022-10-22T17:11:59.208Z,100.00
2022-10-22T17:15:03.219Z,100.00
2022-10-22T17:18:25.995Z,100.00
2022-10-22T17:21:28.532Z,100.00
2022-10-22T17:24:31.094Z,100.00
2022-10-22T17:27:33.624Z,100.00
2022-10-22T17:30:38.851Z,100.00
2022-10-22T17:33:41.364Z,100.00
2022-10-22T17:36:44.985Z,100.00
2022-10-22T17:39:47.513Z,100.00
2022-10-22T17:42:50.232Z,100.00
2022-10-22T17:45:54.040Z,100.00
2022-10-22T17:48:58.796Z,100.00
2022-10-22T17:52:01.420Z,100.00
2022-10-22T17:55:04.613Z,100.00
2022-10-22T17:58:07.135Z,100.00
2022-10-22T18:01:20.344Z,100.00
2022-10-22T18:04:23.811Z,100.00
2022-10-22T18:07:26.342Z,100.00
2022-10-22T18:10:29.784Z,100.00
2022-10-22T18:13:33.446Z,100.00
2022-10-22T18:16:37.478Z,100.00
2022-10-22T18:19:39.970Z,100.00
2022-10-22T18:22:42.599Z,100.00
2022-10-22T18:25:46.152Z,100.00
2022-10-22T18:28:49.076Z,100.00
2022-10-22T18:31:52.986Z,100.00
2022-10-22T18:34:55.464Z,100.00
2022-10-22T18:37:57.931Z,100.00
2022-10-22T18:41:00.497Z,100.00
2022-10-22T18:44:05.337Z,100.00
2022-10-22T18:47:09.199Z,100.00
2022-10-22T18:50:12.079Z,100.00
2022-10-22T18:53:16.091Z,100.00
2022-10-22T18:56:19.268Z,100.00
2022-10-22T18:59:23.692Z,100.00
2022-10-22T19:02:27.692Z,100.00
2022-10-22T19:05:30.266Z,100.00
2022-10-22T19:08:33.204Z,100.00
2022-10-22T19:11:36.355Z,100.00
2022-10-22T19:14:38.850Z,100.00
2022-10-22T19:17:42.889Z,100.00
2022-10-22T19:20:47.615Z,100.00
2022-10-22T19:23:51.537Z,100.00
2022-10-22T19:26:54.758Z,100.00
2022-10-22T19:29:57.234Z,100.00
2022-10-22T19:33:01.174Z,100.00
2022-10-22T19:36:05.547Z,100.00
2022-10-22T19:39:08.855Z,100.00
2022-10-22T19:42:11.324Z,100.00
2022-10-22T19:45:13.810Z,100.00
2022-10-22T19:48:17.624Z,100.00
2022-10-22T19:51:22.059Z,100.00
2022-10-22T19:54:24.567Z,100.00
2022-10-22T19:57:27.044Z,100.00
2022-10-22T20:00:29.629Z,100.00
2022-10-22T20:03:36.117Z,100.00
2022-10-22T20:06:38.626Z,100.00
2022-10-22T20:09:42.276Z,100.00
2022-10-22T20:12:45.628Z,100.00
2022-10-22T20:15:49.832Z,100.00
2022-10-22T20:18:53.991Z,100.00
2022-10-22T20:21:56.823Z,100.00
2022-10-22T20:24:59.332Z,100.00
2022-10-22T20:28:01.863Z,100.00
2022-10-22T20:31:09.605Z,100.00
2022-10-22T20:34:13.823Z,100.00
2022-10-22T20:37:16.349Z,100.00
2022-10-22T20:40:20.132Z,100.00
2022-10-22T20:43:22.617Z,100.00
2022-10-22T20:46:27.569Z,100.00
2022-10-22T20:49:32.809Z,100.00
2022-10-22T20:52:35.330Z,100.00
2022-10-22T20:55:37.850Z,100.00
2022-10-22T20:58:46.166Z,100.00
2022-10-22T21:01:50.360Z,100.00
2022-10-22T21:04:54.169Z,100.00
2022-10-22T21:07:58.374Z,100.00
2022-10-22T21:11:00.948Z,100.00
2022-10-22T21:14:04.099Z,100.00
2022-10-22T21:17:08.017Z,100.00
2022-10-22T21:20:11.997Z,100.00
2022-10-22T21:23:14.607Z,100.00
2022-10-22T21:26:17.210Z,100.00
2022-10-22T21:29:21.109Z,100.00
2022-10-22T21:32:23.606Z,100.00
2022-10-22T21:35:28.366Z,100.00
2022-10-22T21:38:31.097Z,100.00
2022-10-22T21:41:34.020Z,100.00
2022-10-22T21:44:36.578Z,100.00
2022-10-22T21:47:39.153Z,100.00
2022-10-22T21:50:44.518Z,100.00
2022-10-22T21:53:47.430Z,100.00
2022-10-22T21:56:50.079Z,100.00
2022-10-22T21:59:53.018Z,100.00
2022-10-22T22:02:56.108Z,100.00
2022-10-22T22:06:01.185Z,100.00
2022-10-22T22:09:05.728Z,100.00
2022-10-22T22:12:09.402Z,100.00
2022-10-22T22:15:12.093Z,100.00
2022-10-22T22:18:14.565Z,100.00
2022-10-22T22:21:20.485Z,100.00
2022-10-22T22:24:22.989Z,100.00
2022-10-22T22:27:25.469Z,100.00
2022-10-22T22:30:29.141Z,100.00
2022-10-22T22:33:31.616Z,100.00
2022-10-22T22:36:37.193Z,100.00
2022-10-22T22:39:39.682Z,100.00
2022-10-22T22:42:42.171Z,100.00
2022-10-22T22:45:44.636Z,100.00
2022-10-22T22:48:48.736Z,100.00
2022-10-22T22:51:52.580Z,100.00
2022-10-22T22:54:55.061Z,100.00
2022-10-22T22:57:57.545Z,100.00
2022-10-22T23:01:10.765Z,100.00
2022-10-22T23:04:16.274Z,100.00
2022-10-22T23:07:20.127Z,100.00
2022-10-22T23:10:22.628Z,100.00
2022-10-22T23:13:25.098Z,100.00
2022-10-22T23:16:30.184Z,100.00
2022-10-22T23:19:32.667Z,100.00
2022-10-22T23:22:36.494Z,100.00
2022-10-22T23:25:38.974Z,100.00
2022-10-22T23:28:41.657Z,100.00
2022-10-22T23:31:45.119Z,100.00
2022-10-22T23:34:47.634Z,100.00
2022-10-22T23:37:51.493Z,100.00
2022-10-22T23:40:57.388Z,100.00
2022-10-22T23:44:00.114Z,100.00
2022-10-22T23:47:02.591Z,100.00
2022-10-22T23:50:05.385Z,100.00
2022-10-22T23:53:09.456Z,100.00
2022-10-22T23:56:15.189Z,100.00
2022-10-22T23:59:17.719Z,100.00
